23:51
Airports
Links
Donate
Help keep this website running!
PayPal
Bitcoin
METAR
KFRG 192253Z AUTO 22012KT 10SM CLR 17/13 A3009 RMK AO2 SLP189 T01720133
Current Weather Conditions at KFRG
VFR 22:53:00 19-10-17
Automated station, no observer
Altimeter:30.09 hg
Temp:17.2°c 63°f
Dew point:13.3°c 55°f
Wind:12 knots, 13.8 mph, 6 m/s, from 220°
Visibility:10.0 statute miles
(CLR) Clear
Past METAR reports
VFR 21:53:00 19-10-17
Automated station, no observer
Altimeter:30.10 hg
Temp:17.8°c 63°f
Dew point:12.8°c 54°f
Wind:10 knots, 11.5 mph, 5 m/s, from 220°
Visibility:10.0 statute miles
(CLR) Clear
KFRG 192153Z AUTO 22010KT 10SM CLR 18/13 A3010 RMK AO2 SLP191 T01780128
VFR 20:53:00 19-10-17
Automated station, no observer
Altimeter:30.10 hg
Temp:18.3°c 64°f
Dew point:11.1°c 52°f
Wind:13 knots, 15 mph, 7 m/s, from 210°
Visibility:10.0 statute miles
(CLR) Clear
KFRG 192053Z AUTO 21013G18KT 10SM CLR 18/11 A3010 RMK AO2 SLP193 T01830111 56024
VFR 19:53:00 19-10-17
Automated station, no observer
Altimeter:30.13 hg
Temp:18.9°c 64°f
Dew point:10.6°c 50°f
Wind:13 knots, 15 mph, 7 m/s, from 210°
Visibility:10.0 statute miles
(CLR) Clear
KFRG 191953Z AUTO 21013KT 10SM CLR 19/11 A3013 RMK AO2 SLP201 T01890106
VFR 18:53:00 19-10-17
Automated station
Altimeter:30.14 hg
Temp:19.4°c 66°f
Dew point:9.4°c 48°f
Wind:11 knots, 12.7 mph, 6 m/s, from 200°
Visibility:10.0 statute miles
(CLR) Clear
KFRG 191853Z 20011KT 10SM CLR 19/09 A3014 RMK AO2 SLP206 T01940094
VFR 17:53:00 19-10-17
Automated station
Altimeter:30.18 hg
Temp:19.4°c 66°f
Dew point:8.3°c 46°f
Wind:12 knots, 13.8 mph, 6 m/s, from 210°
Visibility:10.0 statute miles
(CLR) Clear
KFRG 191753Z 21012KT 10SM CLR 19/08 A3018 RMK AO2 SLP218 T01940083 10194 20111 58024
TAF
No TAF for KFRG
Forecast at KFRG
No Forecast Reports for KFRG